createdAt,value
2023-09-08T00:01:01.112Z,9.80
2023-09-08T00:03:28.796Z,8.60
2023-09-08T00:05:56.273Z,8.80
2023-09-08T00:08:25.106Z,8.40
2023-09-08T00:10:54.041Z,9.07
2023-09-08T00:13:23.405Z,9.70
2023-09-08T00:15:52.187Z,9.50
2023-09-08T00:18:19.999Z,9.43
2023-09-08T00:20:47.377Z,9.00
2023-09-08T00:23:14.845Z,9.03
2023-09-08T00:25:42.505Z,10.90
2023-09-08T00:28:10.146Z,8.23
2023-09-08T00:30:38.691Z,8.47
2023-09-08T00:33:09.838Z,8.83
2023-09-08T00:35:37.401Z,8.53
2023-09-08T00:38:06.375Z,8.93
2023-09-08T00:40:33.888Z,10.10
2023-09-08T00:43:01.234Z,9.13
2023-09-08T00:45:31.122Z,8.80
2023-09-08T00:47:59.357Z,9.00
2023-09-08T00:50:27.208Z,9.07
2023-09-08T00:52:56.929Z,8.57
2023-09-08T00:55:24.880Z,7.97
2023-09-08T00:57:52.704Z,8.70
2023-09-08T01:00:20.615Z,8.13
2023-09-08T01:02:48.406Z,8.43
2023-09-08T01:05:16.072Z,9.53
2023-09-08T01:07:43.677Z,8.17
2023-09-08T01:10:12.809Z,8.90
2023-09-08T01:12:40.838Z,8.60
2023-09-08T01:15:08.875Z,8.57
2023-09-08T01:17:36.817Z,8.50
2023-09-08T01:20:08.364Z,9.40
2023-09-08T01:22:47.125Z,8.43
2023-09-08T01:25:20.281Z,8.80
2023-09-08T01:27:49.933Z,9.23
2023-09-08T01:30:18.737Z,8.57
2023-09-08T01:32:49.217Z,8.57
2023-09-08T01:35:17.460Z,8.23
2023-09-08T01:37:48.514Z,8.40
2023-09-08T01:40:17.383Z,7.93
2023-09-08T01:42:44.669Z,8.50
2023-09-08T01:45:12.102Z,7.50
2023-09-08T01:47:40.369Z,8.57
2023-09-08T01:50:08.884Z,8.80
2023-09-08T01:52:36.189Z,9.23
2023-09-08T01:55:03.823Z,8.73
2023-09-08T01:57:31.121Z,9.40
2023-09-08T01:59:58.498Z,8.27
2023-09-08T02:02:26.832Z,9.63
2023-09-08T02:04:54.501Z,10.77
2023-09-08T02:07:22.702Z,9.00
2023-09-08T02:09:53.991Z,9.60
2023-09-08T02:12:22.764Z,10.20
2023-09-08T02:14:50.616Z,9.57
2023-09-08T02:17:18.357Z,10.90
2023-09-08T02:19:46.264Z,11.27
2023-09-08T02:22:16.798Z,9.20
2023-09-08T02:24:44.250Z,10.50
2023-09-08T02:27:13.168Z,9.53
2023-09-08T02:29:41.280Z,11.00
2023-09-08T02:32:09.011Z,10.80
2023-09-08T02:34:40.522Z,11.30
2023-09-08T02:37:08.975Z,13.00
2023-09-08T02:39:36.896Z,10.50
2023-09-08T02:42:06.223Z,11.67
2023-09-08T02:44:33.988Z,10.40
2023-09-08T02:47:01.247Z,11.20
2023-09-08T02:49:30.305Z,10.37
2023-09-08T02:51:58.130Z,10.27
2023-09-08T02:54:25.874Z,10.70
2023-09-08T02:56:54.193Z,10.57
2023-09-08T02:59:23.325Z,9.80
2023-09-08T03:01:51.313Z,9.77
2023-09-08T03:04:19.374Z,11.13
2023-09-08T03:06:47.048Z,9.40
2023-09-08T03:09:14.657Z,10.23
2023-09-08T03:11:42.858Z,9.70
2023-09-08T03:14:10.182Z,10.10
2023-09-08T03:16:38.019Z,9.20
2023-09-08T03:19:06.143Z,9.43
2023-09-08T03:21:33.796Z,9.40
2023-09-08T03:24:01.255Z,8.37
2023-09-08T03:26:28.758Z,8.90
2023-09-08T03:28:57.640Z,8.67
2023-09-08T03:31:25.799Z,8.90
2023-09-08T03:33:57.187Z,9.03
2023-09-08T03:36:25.873Z,9.60
2023-09-08T03:38:53.796Z,9.50
2023-09-08T03:41:21.617Z,8.93
2023-09-08T03:43:50.302Z,9.80
2023-09-08T03:46:19.758Z,9.10
2023-09-08T03:48:47.329Z,8.10
2023-09-08T03:51:15.006Z,9.47
2023-09-08T03:53:42.477Z,9.43
2023-09-08T03:56:09.928Z,10.20
2023-09-08T03:58:37.469Z,9.20
2023-09-08T04:01:05.688Z,9.83
2023-09-08T04:03:33.845Z,10.30
2023-09-08T04:06:01.468Z,10.00
2023-09-08T04:08:29.500Z,9.60
2023-09-08T04:10:57.372Z,8.93
2023-09-08T04:13:24.891Z,10.10
2023-09-08T04:15:52.617Z,9.60
2023-09-08T04:18:20.286Z,9.70
2023-09-08T04:20:48.334Z,9.50
2023-09-08T04:23:16.366Z,9.07
2023-09-08T04:25:43.664Z,9.60
2023-09-08T04:28:11.168Z,10.10
2023-09-08T04:30:38.691Z,8.90
2023-09-08T04:33:06.600Z,9.30
2023-09-08T04:35:35.082Z,9.40
2023-09-08T04:38:04.823Z,8.93
2023-09-08T04:40:32.555Z,8.90
2023-09-08T04:43:00.466Z,10.23
2023-09-08T04:45:28.263Z,9.83
2023-09-08T04:47:56.476Z,9.97
2023-09-08T04:50:24.213Z,10.37
2023-09-08T04:52:52.294Z,9.47
2023-09-08T04:55:21.149Z,8.73
2023-09-08T04:57:50.017Z,9.00
2023-09-08T05:00:19.935Z,10.30
2023-09-08T05:02:47.688Z,11.10
2023-09-08T05:05:16.673Z,10.30
2023-09-08T05:07:45.733Z,10.80
2023-09-08T05:10:14.878Z,9.20
2023-09-08T05:12:42.213Z,10.03
2023-09-08T05:15:15.958Z,10.60
2023-09-08T05:17:46.388Z,10.33
2023-09-08T05:20:16.156Z,9.10
2023-09-08T05:22:43.561Z,10.27
2023-09-08T05:25:11.524Z,9.77
2023-09-08T05:27:39.862Z,9.23
2023-09-08T05:30:08.798Z,10.07
2023-09-08T05:32:37.830Z,9.20
2023-09-08T05:35:05.553Z,8.73
2023-09-08T05:37:32.816Z,10.03
2023-09-08T05:40:00.228Z,9.83
2023-09-08T05:42:27.928Z,9.73
2023-09-08T05:44:56.410Z,9.90
2023-09-08T05:47:24.618Z,9.50
2023-09-08T05:49:52.131Z,8.87
2023-09-08T05:52:20.056Z,9.10
2023-09-08T05:54:49.817Z,10.33
2023-09-08T05:57:17.926Z,10.13
2023-09-08T05:59:47.778Z,9.47
2023-09-08T06:02:17.276Z,9.33
2023-09-08T06:04:45.566Z,9.33
2023-09-08T06:07:13.789Z,9.13
2023-09-08T06:09:41.986Z,11.03
2023-09-08T06:12:12.626Z,8.80
2023-09-08T06:14:42.822Z,11.30
2023-09-08T06:17:12.008Z,10.50
2023-09-08T06:19:39.939Z,8.90
2023-09-08T06:22:08.570Z,8.80
2023-09-08T06:24:36.883Z,9.83
2023-09-08T06:27:06.643Z,9.00
2023-09-08T06:29:36.209Z,8.83
2023-09-08T06:32:03.447Z,12.50
2023-09-08T06:34:31.288Z,9.80
2023-09-08T06:36:58.787Z,10.27
2023-09-08T06:39:27.773Z,12.40
2023-09-08T06:41:56.355Z,10.10
2023-09-08T06:44:25.127Z,10.30
2023-09-08T06:46:52.353Z,10.83
2023-09-08T06:49:19.851Z,10.60
2023-09-08T06:51:49.489Z,9.87
2023-09-08T06:54:17.232Z,10.23
2023-09-08T06:56:45.522Z,11.07
2023-09-08T06:59:12.826Z,9.33
2023-09-08T07:01:41.064Z,12.27
2023-09-08T07:04:09.878Z,10.17
2023-09-08T07:06:39.414Z,11.50
2023-09-08T07:09:06.823Z,11.63
2023-09-08T07:11:34.013Z,10.70
2023-09-08T07:14:01.290Z,10.23
2023-09-08T07:16:28.611Z,10.63
2023-09-08T07:18:56.102Z,10.97
2023-09-08T07:21:23.451Z,11.30
2023-09-08T07:23:50.833Z,10.83
2023-09-08T07:26:18.091Z,10.40
2023-09-08T07:28:48.015Z,11.40
2023-09-08T07:31:17.118Z,10.93
2023-09-08T07:33:46.983Z,11.40
2023-09-08T07:36:14.742Z,11.00
2023-09-08T07:38:43.862Z,11.87
2023-09-08T07:41:11.364Z,11.30
2023-09-08T07:43:42.124Z,10.20
2023-09-08T07:46:11.551Z,10.43
2023-09-08T07:48:39.208Z,10.07
2023-09-08T07:51:06.819Z,9.87
2023-09-08T07:53:34.087Z,11.00
2023-09-08T07:56:02.430Z,9.73
2023-09-08T07:58:31.910Z,10.73
2023-09-08T08:01:01.464Z,10.10
2023-09-08T08:03:28.741Z,10.37
2023-09-08T08:05:58.097Z,9.70
2023-09-08T08:08:25.411Z,10.50
2023-09-08T08:10:52.687Z,9.33
2023-09-08T08:13:19.915Z,9.77
2023-09-08T08:15:48.583Z,9.90
2023-09-08T08:18:16.026Z,9.50
2023-09-08T08:20:43.333Z,10.67
2023-09-08T08:23:10.561Z,10.27
2023-09-08T08:25:38.209Z,10.27
2023-09-08T08:28:05.574Z,9.87
2023-09-08T08:30:33.619Z,10.03
2023-09-08T08:33:04.166Z,9.20
2023-09-08T08:35:32.148Z,9.57
2023-09-08T08:38:01.029Z,9.73
2023-09-08T08:40:29.302Z,9.30
2023-09-08T08:42:58.443Z,10.00
2023-09-08T08:45:27.721Z,9.07
2023-09-08T08:47:55.394Z,9.73
2023-09-08T08:50:27.427Z,9.37
2023-09-08T08:52:55.139Z,8.43
2023-09-08T08:55:22.350Z,8.87
2023-09-08T08:57:49.658Z,10.23
2023-09-08T09:00:19.620Z,9.73
2023-09-08T09:02:56.449Z,9.00
2023-09-08T09:05:36.978Z,10.10
2023-09-08T09:08:06.082Z,8.00
2023-09-08T09:10:34.565Z,9.00
2023-09-08T09:13:01.783Z,9.20
2023-09-08T09:15:33.612Z,8.50
2023-09-08T09:18:05.542Z,8.90
2023-09-08T09:20:35.071Z,9.03
2023-09-08T09:23:04.411Z,8.37
2023-09-08T09:25:32.177Z,9.97
2023-09-08T09:28:03.704Z,8.20
2023-09-08T09:30:47.956Z,10.00
2023-09-08T09:33:15.520Z,9.13
2023-09-08T09:35:44.028Z,8.50
2023-09-08T09:38:11.457Z,8.80
2023-09-08T09:40:38.995Z,9.07
2023-09-08T09:43:06.836Z,10.43
2023-09-08T09:45:35.370Z,8.40
2023-09-08T09:48:04.335Z,7.83
2023-09-08T09:50:32.492Z,9.47
2023-09-08T09:53:01.234Z,8.10
2023-09-08T09:55:29.710Z,8.27
2023-09-08T09:58:02.727Z,7.80
2023-09-08T10:00:29.967Z,8.37
2023-09-08T10:02:58.112Z,8.20
2023-09-08T10:05:26.271Z,8.13
2023-09-08T10:07:53.955Z,7.50
2023-09-08T10:10:21.943Z,8.43
2023-09-08T10:12:53.489Z,7.77
2023-09-08T10:15:24.450Z,15.50
2023-09-08T10:18:00.024Z,16.73
2023-09-08T10:20:29.140Z,9.40
2023-09-08T10:22:58.464Z,9.10
2023-09-08T10:25:26.749Z,7.97
2023-09-08T10:27:55.252Z,8.40
2023-09-08T10:30:22.947Z,8.57
2023-09-08T10:32:51.257Z,8.93
2023-09-08T10:35:20.450Z,8.50
2023-09-08T10:37:47.840Z,9.30
2023-09-08T10:40:18.097Z,9.17
2023-09-08T10:42:46.459Z,9.23
2023-09-08T10:45:21.450Z,9.07
2023-09-08T10:47:48.726Z,9.00
2023-09-08T10:50:20.228Z,8.80
2023-09-08T10:53:05.434Z,8.43
2023-09-08T10:55:42.049Z,8.60
2023-09-08T10:58:11.346Z,9.87
2023-09-08T11:00:45.177Z,9.53
2023-09-08T11:03:13.252Z,8.67
2023-09-08T11:05:40.560Z,8.33
2023-09-08T11:08:10.721Z,9.20
2023-09-08T11:10:38.750Z,9.10
2023-09-08T11:13:06.533Z,9.37
2023-09-08T11:15:33.756Z,8.97
2023-09-08T11:18:06.316Z,9.87
2023-09-08T11:20:33.798Z,8.87
2023-09-08T11:23:01.150Z,8.87
2023-09-08T11:25:28.403Z,7.83
2023-09-08T11:27:55.980Z,8.73
2023-09-08T11:30:23.242Z,8.80
2023-09-08T11:32:50.527Z,10.23
2023-09-08T11:35:21.652Z,9.80
2023-09-08T11:37:50.582Z,8.40
2023-09-08T11:40:20.372Z,8.37
2023-09-08T11:42:47.691Z,8.97
2023-09-08T11:45:15.792Z,8.40
2023-09-08T11:47:44.906Z,10.07
2023-09-08T11:50:19.259Z,8.80
2023-09-08T11:52:47.799Z,8.63
2023-09-08T11:55:15.482Z,9.50
2023-09-08T11:57:43.405Z,8.03
2023-09-08T12:00:13.479Z,8.13
2023-09-08T12:02:40.812Z,9.67
2023-09-08T12:05:13.249Z,8.27
2023-09-08T12:07:40.472Z,8.10
2023-09-08T12:10:11.714Z,7.97
2023-09-08T12:12:49.471Z,8.50
2023-09-08T12:15:35.843Z,9.27
2023-09-08T12:18:05.173Z,9.37
2023-09-08T12:20:32.874Z,7.90
2023-09-08T12:23:04.255Z,7.60
2023-09-08T12:25:38.601Z,8.00
2023-09-08T12:28:08.497Z,8.47
2023-09-08T12:30:35.752Z,8.07
2023-09-08T12:33:03.775Z,10.23
2023-09-08T12:35:32.803Z,8.47
2023-09-08T12:38:06.334Z,7.77
2023-09-08T12:40:37.330Z,8.10
2023-09-08T12:43:14.399Z,8.37
2023-09-08T12:45:50.625Z,7.57
2023-09-08T12:48:17.841Z,9.00
2023-09-08T12:50:45.085Z,8.00
2023-09-08T12:53:12.312Z,8.00
2023-09-08T12:55:39.496Z,8.37
2023-09-08T12:58:06.762Z,7.20
2023-09-08T13:00:34.017Z,7.23
2023-09-08T13:03:03.010Z,7.17
2023-09-08T13:05:30.450Z,8.93
2023-09-08T13:07:57.674Z,7.13
2023-09-08T13:10:25.064Z,16.57
2023-09-08T13:12:52.419Z,7.17
2023-09-08T13:15:20.786Z,7.73
2023-09-08T13:17:48.044Z,7.40
2023-09-08T13:20:15.536Z,7.93
2023-09-08T13:22:45.169Z,6.90
2023-09-08T13:25:13.467Z,7.50
2023-09-08T13:27:43.692Z,7.20
2023-09-08T13:30:12.007Z,7.67
2023-09-08T13:32:39.518Z,6.63
2023-09-08T13:35:07.168Z,6.63
2023-09-08T13:37:35.639Z,7.10
2023-09-08T13:40:05.080Z,6.47
2023-09-08T13:42:34.344Z,6.77
2023-09-08T13:45:01.999Z,8.40
2023-09-08T13:47:29.906Z,8.07
2023-09-08T13:49:58.650Z,7.03
2023-09-08T13:52:28.646Z,6.50
2023-09-08T13:55:24.496Z,7.23
2023-09-08T13:57:50.336Z,7.27
2023-09-08T14:00:23.127Z,6.73
2023-09-08T14:02:57.940Z,7.13
2023-09-08T14:05:29.330Z,7.20
2023-09-08T14:08:06.923Z,6.37
2023-09-08T14:13:06.282Z,6.67
2023-09-08T14:15:33.609Z,8.03
2023-09-08T14:18:00.894Z,7.83
2023-09-08T14:20:28.156Z,8.33
2023-09-08T14:22:55.360Z,7.57
2023-09-08T14:25:23.614Z,7.80
2023-09-08T14:27:50.821Z,7.40
2023-09-08T14:30:18.079Z,7.30
2023-09-08T14:32:47.484Z,6.90
2023-09-08T14:35:14.774Z,7.10
2023-09-08T14:37:43.077Z,7.40
2023-09-08T14:40:10.524Z,6.43
2023-09-08T14:42:41.890Z,7.57
2023-09-08T14:45:10.333Z,6.97
2023-09-08T14:47:37.614Z,6.80
2023-09-08T14:50:05.220Z,6.40
2023-09-08T14:52:32.430Z,7.93
2023-09-08T14:55:00.214Z,8.00
2023-09-08T14:57:31.059Z,7.60
2023-09-08T14:59:58.387Z,7.80
2023-09-08T15:02:26.056Z,8.20
2023-09-08T15:04:53.543Z,8.00
2023-09-08T15:07:21.015Z,7.80
2023-09-08T15:09:48.725Z,7.63
2023-09-08T15:12:16.023Z,8.63
2023-09-08T15:14:43.285Z,7.40
2023-09-08T15:17:12.395Z,6.73
2023-09-08T15:19:40.031Z,7.03
2023-09-08T15:22:07.865Z,6.60
2023-09-08T15:24:38.643Z,6.77
2023-09-08T15:27:05.831Z,6.77
2023-09-08T15:29:33.338Z,7.20
2023-09-08T15:32:01.529Z,6.40
2023-09-08T15:34:28.843Z,7.37
2023-09-08T15:36:58.856Z,7.90
2023-09-08T15:39:26.151Z,8.10
2023-09-08T15:41:55.520Z,7.30
2023-09-08T15:44:22.753Z,7.47
2023-09-08T15:46:50.466Z,7.77
2023-09-08T15:49:18.744Z,6.97
2023-09-08T15:51:49.640Z,6.63
2023-09-08T15:54:19.192Z,6.97
2023-09-08T15:56:47.116Z,7.13
2023-09-08T15:59:15.272Z,6.77
2023-09-08T16:01:42.662Z,6.73
2023-09-08T16:04:11.319Z,7.30
2023-09-08T16:06:38.744Z,7.50
2023-09-08T16:09:07.043Z,6.73
2023-09-08T16:11:34.596Z,7.50
2023-09-08T16:14:01.844Z,6.97
2023-09-08T16:16:29.099Z,7.23
2023-09-08T16:18:56.349Z,7.10
2023-09-08T16:21:23.749Z,7.67
2023-09-08T16:23:50.969Z,7.47
2023-09-08T16:26:19.088Z,7.23
2023-09-08T16:28:46.338Z,6.67
2023-09-08T16:31:14.265Z,7.23
2023-09-08T16:33:42.653Z,6.90
2023-09-08T16:36:10.416Z,7.20
2023-09-08T16:38:37.672Z,7.90
2023-09-08T16:41:04.851Z,7.33
2023-09-08T16:43:32.181Z,8.10
2023-09-08T16:45:59.720Z,7.20
2023-09-08T16:48:27.094Z,8.10
2023-09-08T16:50:54.268Z,7.80
2023-09-08T16:53:21.488Z,7.80
2023-09-08T16:55:48.841Z,8.40
2023-09-08T16:58:16.092Z,8.47
2023-09-08T17:00:43.590Z,8.80
2023-09-08T17:03:11.665Z,9.10
2023-09-08T17:05:42.808Z,8.60
2023-09-08T17:08:12.521Z,7.83
2023-09-08T17:10:40.193Z,8.50
2023-09-08T17:13:08.517Z,8.93
2023-09-08T17:15:36.906Z,9.43
2023-09-08T17:18:04.210Z,8.70
2023-09-08T17:20:32.163Z,7.50
2023-09-08T17:22:59.622Z,7.63
2023-09-08T17:25:29.096Z,8.50
2023-09-08T17:27:59.160Z,9.13
2023-09-08T17:30:26.428Z,8.70
2023-09-08T17:32:53.677Z,9.87
2023-09-08T17:35:22.572Z,10.77
2023-09-08T17:37:49.857Z,12.70
2023-09-08T17:40:17.434Z,10.60
2023-09-08T17:42:44.721Z,12.10
2023-09-08T17:45:12.059Z,12.43
2023-09-08T17:47:39.568Z,11.50
2023-09-08T17:50:09.243Z,10.70
2023-09-08T17:52:36.685Z,11.30
2023-09-08T17:55:05.331Z,14.30
2023-09-08T17:57:32.708Z,12.10
2023-09-08T18:00:00.160Z,12.20
2023-09-08T18:02:27.674Z,12.40
2023-09-08T18:04:55.656Z,12.43
2023-09-08T18:07:25.121Z,12.20
2023-09-08T18:09:52.508Z,12.47
2023-09-08T18:15:17.321Z,10.63
2023-09-08T18:17:48.163Z,11.13
2023-09-08T18:20:15.707Z,11.37
2023-09-08T18:22:43.528Z,11.10
2023-09-08T18:25:11.409Z,10.80
2023-09-08T18:27:39.344Z,11.03
2023-09-08T18:30:07.070Z,12.43
2023-09-08T18:32:34.956Z,11.70
2023-09-08T18:35:03.736Z,11.10
2023-09-08T18:37:31.148Z,12.47
2023-09-08T18:39:58.395Z,10.07
2023-09-08T18:42:26.139Z,12.07
2023-09-08T18:44:53.422Z,11.47
2023-09-08T18:47:20.634Z,11.63
2023-09-08T18:49:48.383Z,11.67
2023-09-08T18:52:15.575Z,11.10
2023-09-08T18:54:42.767Z,13.47
2023-09-08T18:57:11.068Z,15.23
2023-09-08T18:59:38.432Z,13.53
2023-09-08T19:02:07.598Z,14.47
2023-09-08T19:04:35.160Z,12.30
2023-09-08T19:07:02.408Z,11.70
2023-09-08T19:09:29.605Z,11.93
2023-09-08T19:11:57.014Z,12.20
2023-09-08T19:14:27.797Z,13.63
2023-09-08T19:16:55.760Z,12.13
2023-09-08T19:19:23.068Z,12.83
2023-09-08T19:21:52.360Z,13.20
2023-09-08T19:24:20.806Z,14.13
2023-09-08T19:26:49.726Z,13.50
2023-09-08T19:29:19.941Z,13.87
2023-09-08T19:31:47.600Z,15.97
2023-09-08T19:34:15.291Z,14.30
2023-09-08T19:36:43.736Z,17.67
2023-09-08T19:39:11.541Z,15.67
2023-09-08T19:41:38.780Z,14.90
2023-09-08T19:44:07.347Z,17.20
2023-09-08T19:46:37.098Z,16.37
2023-09-08T19:49:04.683Z,14.47
2023-09-08T19:51:32.565Z,14.43
2023-09-08T19:54:01.511Z,15.83
2023-09-08T19:56:29.803Z,13.37
2023-09-08T19:58:57.126Z,15.77
2023-09-08T20:01:24.536Z,14.00
2023-09-08T20:03:52.338Z,13.57
2023-09-08T20:06:22.140Z,16.77
2023-09-08T20:08:49.511Z,18.50
2023-09-08T20:11:17.101Z,13.40
2023-09-08T20:13:45.963Z,14.00
2023-09-08T20:16:13.230Z,13.90
2023-09-08T20:18:40.632Z,16.43
2023-09-08T20:21:08.126Z,13.90
2023-09-08T20:23:38.266Z,14.97
2023-09-08T20:26:05.769Z,12.97
2023-09-08T20:28:33.063Z,13.20
2023-09-08T20:33:32.778Z,16.37
2023-09-08T20:36:00.238Z,14.03
2023-09-08T20:38:28.506Z,14.83
2023-09-08T20:40:57.069Z,15.90
2023-09-08T20:43:24.397Z,15.27
2023-09-08T20:45:55.375Z,14.97
2023-09-08T20:48:23.205Z,13.77
2023-09-08T20:51:00.689Z,14.47
2023-09-08T20:53:28.250Z,14.10
2023-09-08T20:55:55.550Z,14.20
2023-09-08T20:58:26.644Z,14.90
2023-09-08T21:00:55.435Z,16.50
2023-09-08T21:03:23.847Z,17.03
2023-09-08T21:05:51.748Z,18.77
2023-09-08T21:08:20.228Z,18.27
2023-09-08T21:10:47.802Z,20.10
2023-09-08T21:13:15.691Z,18.37
2023-09-08T21:15:42.982Z,21.47
2023-09-08T21:18:11.597Z,20.10
2023-09-08T21:20:38.821Z,20.13
2023-09-08T21:23:05.990Z,20.33
2023-09-08T21:25:34.177Z,18.43
2023-09-08T21:28:01.415Z,19.77
2023-09-08T21:30:28.638Z,19.83
2023-09-08T21:32:55.924Z,20.10
2023-09-08T21:35:23.244Z,19.67
2023-09-08T21:37:50.508Z,21.47
2023-09-08T21:40:18.158Z,18.67
2023-09-08T21:42:45.376Z,19.10
2023-09-08T21:45:12.758Z,19.17
2023-09-08T21:47:39.987Z,20.30
2023-09-08T21:50:07.477Z,22.37
2023-09-08T21:52:38.780Z,20.87
2023-09-08T21:55:07.524Z,18.70
2023-09-08T21:57:35.068Z,19.43
2023-09-08T22:00:02.786Z,18.77
2023-09-08T22:02:38.844Z,18.17
2023-09-08T22:05:06.779Z,16.97
2023-09-08T22:07:34.404Z,16.90
2023-09-08T22:10:01.884Z,15.97
2023-09-08T22:12:29.923Z,16.57
2023-09-08T22:14:58.503Z,15.17
2023-09-08T22:17:25.968Z,14.70
2023-09-08T22:19:55.639Z,15.10
2023-09-08T22:22:23.006Z,14.27
2023-09-08T22:24:50.262Z,14.53
2023-09-08T22:27:17.483Z,13.80
2023-09-08T22:29:45.712Z,13.60
2023-09-08T22:32:13.115Z,13.50
2023-09-08T22:34:40.335Z,13.43
2023-09-08T22:37:07.573Z,14.40
2023-09-08T22:39:34.858Z,13.40
2023-09-08T22:42:03.663Z,13.20
2023-09-08T22:44:33.076Z,12.93
2023-09-08T22:47:02.433Z,13.70
2023-09-08T22:49:30.370Z,11.60
2023-09-08T22:51:58.860Z,12.93
2023-09-08T22:54:26.960Z,13.23
2023-09-08T22:56:55.652Z,12.87
2023-09-08T22:59:23.093Z,13.50
2023-09-08T23:01:50.315Z,13.37
2023-09-08T23:04:18.008Z,13.17
2023-09-08T23:06:46.587Z,12.70
2023-09-08T23:09:14.280Z,12.30
2023-09-08T23:11:41.752Z,13.23
2023-09-08T23:14:09.358Z,12.90
2023-09-08T23:16:37.191Z,12.57
2023-09-08T23:19:04.567Z,12.83
2023-09-08T23:21:31.963Z,12.53
2023-09-08T23:23:59.377Z,12.63
2023-09-08T23:26:27.744Z,12.53
2023-09-08T23:28:55.897Z,15.20
2023-09-08T23:31:23.722Z,16.30
2023-09-08T23:33:51.243Z,15.57
2023-09-08T23:36:18.760Z,14.50
2023-09-08T23:38:46.212Z,13.97
2023-09-08T23:41:13.656Z,14.17
2023-09-08T23:43:41.242Z,13.20
2023-09-08T23:46:08.729Z,14.13
2023-09-08T23:48:36.336Z,13.20
2023-09-08T23:51:04.725Z,12.53
2023-09-08T23:53:32.536Z,13.23
2023-09-08T23:56:02.068Z,12.37
2023-09-08T23:58:29.533Z,12.40
